sensor_id;sensor_type;location;lat;lon;timestamp;temperature;humidity
18717;DHT22;9487;50.892;6.906;2023-04-25T00:02:12;8.00;99.90
18717;DHT22;9487;50.892;6.906;2023-04-25T00:04:41;8.20;1.00
18717;DHT22;9487;50.892;6.906;2023-04-25T00:07:09;8.40;99.90
18717;DHT22;9487;50.892;6.906;2023-04-25T00:09:36;8.20;27.90
18717;DHT22;9487;50.892;6.906;2023-04-25T00:12:03;8.10;99.90
18717;DHT22;9487;50.892;6.906;2023-04-25T00:14:30;8.20;1.00
18717;DHT22;9487;50.892;6.906;2023-04-25T00:16:59;8.40;1.00
18717;DHT22;9487;50.892;6.906;2023-04-25T00:19:25;8.50;99.90
18717;DHT22;9487;50.892;6.906;2023-04-25T00:21:55;8.60;1.00
18717;DHT22;9487;50.892;6.906;2023-04-25T00:24:22;8.60;99.90
18717;DHT22;9487;50.892;6.906;2023-04-25T00:26:48;8.70;94.40
18717;DHT22;9487;50.892;6.906;2023-04-25T00:29:15;8.60;1.00
18717;DHT22;9487;50.892;6.906;2023-04-25T00:31:42;8.50;1.00
18717;DHT22;9487;50.892;6.906;2023-04-25T00:34:09;8.60;99.90
18717;DHT22;9487;50.892;6.906;2023-04-25T00:36:36;8.70;54.00
18717;DHT22;9487;50.892;6.906;2023-04-25T00:39:05;8.60;1.00
18717;DHT22;9487;50.892;6.906;2023-04-25T00:41:32;8.50;1.00
18717;DHT22;9487;50.892;6.906;2023-04-25T00:43:59;8.20;1.00
18717;DHT22;9487;50.892;6.906;2023-04-25T00:46:27;8.30;1.00
18717;DHT22;9487;50.892;6.906;2023-04-25T00:48:54;8.30;1.00
18717;DHT22;9487;50.892;6.906;2023-04-25T00:51:21;8.30;99.90
18717;DHT22;9487;50.892;6.906;2023-04-25T00:53:49;8.10;1.00
18717;DHT22;9487;50.892;6.906;2023-04-25T00:56:17;8.10;99.90
18717;DHT22;9487;50.892;6.906;2023-04-25T00:58:45;8.00;1.00
18717;DHT22;9487;50.892;6.906;2023-04-25T01:01:12;7.90;99.90
18717;DHT22;9487;50.892;6.906;2023-04-25T01:03:40;7.70;1.00
18717;DHT22;9487;50.892;6.906;2023-04-25T01:06:09;7.70;1.00
18717;DHT22;9487;50.892;6.906;2023-04-25T01:08:37;7.60;99.90
18717;DHT22;9487;50.892;6.906;2023-04-25T01:11:04;7.40;1.00
18717;DHT22;9487;50.892;6.906;2023-04-25T01:13:33;7.30;1.00
18717;DHT22;9487;50.892;6.906;2023-04-25T01:16:01;7.20;99.90
18717;DHT22;9487;50.892;6.906;2023-04-25T01:18:28;7.10;99.90
18717;DHT22;9487;50.892;6.906;2023-04-25T01:20:55;7.00;99.90
18717;DHT22;9487;50.892;6.906;2023-04-25T01:23:23;7.00;1.00
18717;DHT22;9487;50.892;6.906;2023-04-25T01:25:50;7.00;1.00
18717;DHT22;9487;50.892;6.906;2023-04-25T01:28:18;7.00;1.00
18717;DHT22;9487;50.892;6.906;2023-04-25T01:30:45;7.00;1.00
18717;DHT22;9487;50.892;6.906;2023-04-25T01:33:14;6.90;1.00
18717;DHT22;9487;50.892;6.906;2023-04-25T01:35:41;6.90;1.00
18717;DHT22;9487;50.892;6.906;2023-04-25T01:38:08;6.90;1.00
18717;DHT22;9487;50.892;6.906;2023-04-25T01:40:39;6.90;23.20
18717;DHT22;9487;50.892;6.906;2023-04-25T01:43:07;6.80;29.70
18717;DHT22;9487;50.892;6.906;2023-04-25T01:45:36;6.80;99.90
18717;DHT22;9487;50.892;6.906;2023-04-25T01:48:05;6.80;99.90
18717;DHT22;9487;50.892;6.906;2023-04-25T01:50:32;6.80;99.90
18717;DHT22;9487;50.892;6.906;2023-04-25T01:52:59;6.70;99.90
18717;DHT22;9487;50.892;6.906;2023-04-25T01:55:27;6.70;99.90
18717;DHT22;9487;50.892;6.906;2023-04-25T01:57:55;6.70;99.90
18717;DHT22;9487;50.892;6.906;2023-04-25T02:00:22;6.70;99.90
18717;DHT22;9487;50.892;6.906;2023-04-25T02:02:49;6.70;1.00
18717;DHT22;9487;50.892;6.906;2023-04-25T02:05:18;6.60;99.90
18717;DHT22;9487;50.892;6.906;2023-04-25T02:07:45;6.70;99.90
18717;DHT22;9487;50.892;6.906;2023-04-25T02:10:12;6.60;99.90
18717;DHT22;9487;50.892;6.906;2023-04-25T02:12:39;6.60;99.90
18717;DHT22;9487;50.892;6.906;2023-04-25T02:15:08;6.60;99.90
18717;DHT22;9487;50.892;6.906;2023-04-25T02:17:35;6.60;99.90
18717;DHT22;9487;50.892;6.906;2023-04-25T02:20:02;6.60;99.90
18717;DHT22;9487;50.892;6.906;2023-04-25T02:22:29;6.60;99.90
18717;DHT22;9487;50.892;6.906;2023-04-25T02:24:56;6.60;99.90
18717;DHT22;9487;50.892;6.906;2023-04-25T02:27:23;6.60;99.90
18717;DHT22;9487;50.892;6.906;2023-04-25T02:29:50;6.70;99.90
18717;DHT22;9487;50.892;6.906;2023-04-25T02:32:18;6.70;99.90
18717;DHT22;9487;50.892;6.906;2023-04-25T02:34:45;6.60;99.90
18717;DHT22;9487;50.892;6.906;2023-04-25T02:37:13;6.70;99.90
18717;DHT22;9487;50.892;6.906;2023-04-25T02:39:40;6.70;99.90
18717;DHT22;9487;50.892;6.906;2023-04-25T02:42:07;6.70;99.90
18717;DHT22;9487;50.892;6.906;2023-04-25T02:44:34;6.70;99.90
18717;DHT22;9487;50.892;6.906;2023-04-25T02:47:00;6.70;99.90
18717;DHT22;9487;50.892;6.906;2023-04-25T02:49:29;6.70;99.90
18717;DHT22;9487;50.892;6.906;2023-04-25T02:51:55;6.70;99.90
18717;DHT22;9487;50.892;6.906;2023-04-25T02:54:22;6.70;99.90
18717;DHT22;9487;50.892;6.906;2023-04-25T02:56:49;6.80;99.90
18717;DHT22;9487;50.892;6.906;2023-04-25T02:59:16;6.70;99.90
18717;DHT22;9487;50.892;6.906;2023-04-25T03:01:43;6.70;99.90
18717;DHT22;9487;50.892;6.906;2023-04-25T03:04:10;6.70;99.90
18717;DHT22;9487;50.892;6.906;2023-04-25T03:06:38;6.70;99.90
18717;DHT22;9487;50.892;6.906;2023-04-25T03:09:05;6.70;99.90
18717;DHT22;9487;50.892;6.906;2023-04-25T03:11:32;6.70;99.90
18717;DHT22;9487;50.892;6.906;2023-04-25T03:13:59;6.70;99.90
18717;DHT22;9487;50.892;6.906;2023-04-25T03:16:26;6.70;99.90
18717;DHT22;9487;50.892;6.906;2023-04-25T03:18:53;6.70;99.90
18717;DHT22;9487;50.892;6.906;2023-04-25T03:21:19;6.80;99.90
18717;DHT22;9487;50.892;6.906;2023-04-25T03:23:48;6.80;99.90
18717;DHT22;9487;50.892;6.906;2023-04-25T03:26:15;6.70;99.90
18717;DHT22;9487;50.892;6.906;2023-04-25T03:28:41;6.80;1.00
18717;DHT22;9487;50.892;6.906;2023-04-25T03:31:08;6.70;1.00
18717;DHT22;9487;50.892;6.906;2023-04-25T03:33:35;6.70;1.00
18717;DHT22;9487;50.892;6.906;2023-04-25T03:36:02;6.70;1.00
18717;DHT22;9487;50.892;6.906;2023-04-25T03:38:29;6.80;1.00
18717;DHT22;9487;50.892;6.906;2023-04-25T03:40:57;6.70;1.00
18717;DHT22;9487;50.892;6.906;2023-04-25T03:43:24;6.70;1.00
18717;DHT22;9487;50.892;6.906;2023-04-25T03:45:51;6.80;1.00
18717;DHT22;9487;50.892;6.906;2023-04-25T03:48:18;7.00;1.00
18717;DHT22;9487;50.892;6.906;2023-04-25T03:50:46;7.20;1.00
18717;DHT22;9487;50.892;6.906;2023-04-25T03:53:13;7.20;99.90
18717;DHT22;9487;50.892;6.906;2023-04-25T03:55:42;7.10;1.00
18717;DHT22;9487;50.892;6.906;2023-04-25T12:43:22;10.90;1.00
18717;DHT22;9487;50.892;6.906;2023-04-25T12:45:49;11.10;1.00
18717;DHT22;9487;50.892;6.906;2023-04-25T12:48:16;10.90;1.00
18717;DHT22;9487;50.892;6.906;2023-04-25T12:50:43;10.70;1.00
18717;DHT22;9487;50.892;6.906;2023-04-25T12:53:11;10.90;13.90
18717;DHT22;9487;50.892;6.906;2023-04-25T12:55:38;10.60;26.10
18717;DHT22;9487;50.892;6.906;2023-04-25T12:58:05;10.40;27.80
18717;DHT22;9487;50.892;6.906;2023-04-25T13:00:33;10.20;66.70
18717;DHT22;9487;50.892;6.906;2023-04-25T13:03:00;10.20;95.70
18717;DHT22;9487;50.892;6.906;2023-04-25T13:05:28;10.10;99.90
18717;DHT22;9487;50.892;6.906;2023-04-25T13:07:58;9.90;99.90
18717;DHT22;9487;50.892;6.906;2023-04-25T13:10:25;9.90;99.90
18717;DHT22;9487;50.892;6.906;2023-04-25T13:12:52;9.90;99.90
18717;DHT22;9487;50.892;6.906;2023-04-25T13:15:19;9.90;99.90
18717;DHT22;9487;50.892;6.906;2023-04-25T13:17:48;9.80;99.90
18717;DHT22;9487;50.892;6.906;2023-04-25T13:20:15;9.80;99.90
18717;DHT22;9487;50.892;6.906;2023-04-25T13:22:44;9.80;99.90
18717;DHT22;9487;50.892;6.906;2023-04-25T13:25:11;9.80;99.90
18717;DHT22;9487;50.892;6.906;2023-04-25T13:27:38;9.90;99.90
18717;DHT22;9487;50.892;6.906;2023-04-25T13:30:06;9.90;99.90
18717;DHT22;9487;50.892;6.906;2023-04-25T13:32:34;9.90;94.30
18717;DHT22;9487;50.892;6.906;2023-04-25T13:35:05;9.90;99.90
18717;DHT22;9487;50.892;6.906;2023-04-25T13:37:32;10.10;90.40
18717;DHT22;9487;50.892;6.906;2023-04-25T13:40:00;10.10;50.00
18717;DHT22;9487;50.892;6.906;2023-04-25T13:42:29;10.10;90.80
18717;DHT22;9487;50.892;6.906;2023-04-25T13:44:56;10.10;68.50
18717;DHT22;9487;50.892;6.906;2023-04-25T13:47:23;10.20;99.90
18717;DHT22;9487;50.892;6.906;2023-04-25T13:49:50;10.30;99.90
18717;DHT22;9487;50.892;6.906;2023-04-25T13:52:18;10.50;88.10
18717;DHT22;9487;50.892;6.906;2023-04-25T13:54:45;10.50;22.90
18717;DHT22;9487;50.892;6.906;2023-04-25T13:57:12;10.80;26.10
18717;DHT22;9487;50.892;6.906;2023-04-25T13:59:39;11.20;6.10
18717;DHT22;9487;50.892;6.906;2023-04-25T14:02:06;11.60;1.00
18717;DHT22;9487;50.892;6.906;2023-04-25T14:04:33;11.20;3.70
18717;DHT22;9487;50.892;6.906;2023-04-25T14:07:00;11.00;1.00
18717;DHT22;9487;50.892;6.906;2023-04-25T14:09:29;11.10;13.50
18717;DHT22;9487;50.892;6.906;2023-04-25T14:11:56;10.90;43.70
18717;DHT22;9487;50.892;6.906;2023-04-25T14:14:23;10.90;20.50
18717;DHT22;9487;50.892;6.906;2023-04-25T14:16:51;11.20;21.80
18717;DHT22;9487;50.892;6.906;2023-04-25T14:19:19;11.10;99.90
18717;DHT22;9487;50.892;6.906;2023-04-25T14:21:46;11.10;82.70
18717;DHT22;9487;50.892;6.906;2023-04-25T14:24:13;10.90;27.60
18717;DHT22;9487;50.892;6.906;2023-04-25T14:26:42;10.80;17.30
18717;DHT22;9487;50.892;6.906;2023-04-25T14:29:10;10.80;25.40
18717;DHT22;9487;50.892;6.906;2023-04-25T14:31:38;10.70;1.00
18717;DHT22;9487;50.892;6.906;2023-04-25T14:34:05;10.60;1.00
18717;DHT22;9487;50.892;6.906;2023-04-25T14:36:32;10.50;1.00
18717;DHT22;9487;50.892;6.906;2023-04-25T14:38:59;10.50;1.00
18717;DHT22;9487;50.892;6.906;2023-04-25T14:41:27;10.60;1.00
18717;DHT22;9487;50.892;6.906;2023-04-25T14:43:55;10.50;1.00
18717;DHT22;9487;50.892;6.906;2023-04-25T14:46:22;10.50;1.00
18717;DHT22;9487;50.892;6.906;2023-04-25T14:48:49;10.50;1.00
18717;DHT22;9487;50.892;6.906;2023-04-25T14:51:16;10.50;1.00
18717;DHT22;9487;50.892;6.906;2023-04-25T14:53:43;10.60;1.00
18717;DHT22;9487;50.892;6.906;2023-04-25T14:56:10;10.60;1.00
18717;DHT22;9487;50.892;6.906;2023-04-25T14:58:38;10.80;1.00
18717;DHT22;9487;50.892;6.906;2023-04-25T15:01:07;10.70;1.00
18717;DHT22;9487;50.892;6.906;2023-04-25T15:03:34;10.60;1.00
18717;DHT22;9487;50.892;6.906;2023-04-25T15:06:01;10.50;1.00
18717;DHT22;9487;50.892;6.906;2023-04-25T15:08:28;10.50;1.00
18717;DHT22;9487;50.892;6.906;2023-04-25T15:10:57;10.60;1.00
18717;DHT22;9487;50.892;6.906;2023-04-25T15:13:24;10.80;1.00
18717;DHT22;9487;50.892;6.906;2023-04-25T15:15:51;10.80;1.00
18717;DHT22;9487;50.892;6.906;2023-04-25T15:18:21;10.90;1.00
18717;DHT22;9487;50.892;6.906;2023-04-25T15:20:49;10.80;1.00
18717;DHT22;9487;50.892;6.906;2023-04-25T15:23:17;10.80;1.00
18717;DHT22;9487;50.892;6.906;2023-04-25T15:25:44;10.90;1.00
18717;DHT22;9487;50.892;6.906;2023-04-25T15:28:11;11.10;1.00
18717;DHT22;9487;50.892;6.906;2023-04-25T15:30:39;11.20;1.00
18717;DHT22;9487;50.892;6.906;2023-04-25T15:33:06;11.40;1.00
18717;DHT22;9487;50.892;6.906;2023-04-25T15:35:34;11.70;1.00
18717;DHT22;9487;50.892;6.906;2023-04-25T15:38:01;12.00;1.00
18717;DHT22;9487;50.892;6.906;2023-04-25T15:40:28;11.80;1.00
18717;DHT22;9487;50.892;6.906;2023-04-25T15:42:54;11.60;1.00
18717;DHT22;9487;50.892;6.906;2023-04-25T15:45:23;11.60;1.00
18717;DHT22;9487;50.892;6.906;2023-04-25T15:47:52;11.30;1.00
18717;DHT22;9487;50.892;6.906;2023-04-25T15:50:20;11.20;1.00
18717;DHT22;9487;50.892;6.906;2023-04-25T15:52:49;11.10;1.00
18717;DHT22;9487;50.892;6.906;2023-04-25T15:55:17;11.00;1.00
18717;DHT22;9487;50.892;6.906;2023-04-25T15:57:48;11.00;99.90
18717;DHT22;9487;50.892;6.906;2023-04-25T16:00:16;10.90;41.40
18717;DHT22;9487;50.892;6.906;2023-04-25T16:02:44;10.90;4.90
18717;DHT22;9487;50.892;6.906;2023-04-25T16:05:12;10.90;1.00
18717;DHT22;9487;50.892;6.906;2023-04-25T16:07:41;10.80;6.40
18717;DHT22;9487;50.892;6.906;2023-04-25T16:10:10;10.70;99.90
18717;DHT22;9487;50.892;6.906;2023-04-25T16:12:37;10.60;53.90
18717;DHT22;9487;50.892;6.906;2023-04-25T16:15:05;10.50;99.90
18717;DHT22;9487;50.892;6.906;2023-04-25T16:17:32;10.50;14.30
18717;DHT22;9487;50.892;6.906;2023-04-25T16:20:00;10.50;1.00
18717;DHT22;9487;50.892;6.906;2023-04-25T16:22:34;10.50;26.70
18717;DHT22;9487;50.892;6.906;2023-04-25T16:25:01;10.40;1.00
18717;DHT22;9487;50.892;6.906;2023-04-25T16:27:29;10.40;1.00
18717;DHT22;9487;50.892;6.906;2023-04-25T16:29:56;10.40;28.80
18717;DHT22;9487;50.892;6.906;2023-04-25T16:32:22;10.50;27.60
18717;DHT22;9487;50.892;6.906;2023-04-25T16:34:49;10.60;1.00
18717;DHT22;9487;50.892;6.906;2023-04-25T16:37:16;10.60;1.00
18717;DHT22;9487;50.892;6.906;2023-04-25T16:39:43;10.60;1.00
18717;DHT22;9487;50.892;6.906;2023-04-25T16:42:10;10.60;1.00
18717;DHT22;9487;50.892;6.906;2023-04-25T16:44:38;10.40;1.00
18717;DHT22;9487;50.892;6.906;2023-04-25T16:47:05;10.30;1.30
18717;DHT22;9487;50.892;6.906;2023-04-25T16:49:32;10.20;15.60
18717;DHT22;9487;50.892;6.906;2023-04-25T16:51:58;10.30;45.30
18717;DHT22;9487;50.892;6.906;2023-04-25T16:54:26;10.30;99.90
18717;DHT22;9487;50.892;6.906;2023-04-25T16:56:52;10.30;99.90
18717;DHT22;9487;50.892;6.906;2023-04-25T16:59:19;10.20;99.90
18717;DHT22;9487;50.892;6.906;2023-04-25T17:01:48;10.20;99.90
18717;DHT22;9487;50.892;6.906;2023-04-25T17:04:14;10.20;99.90
18717;DHT22;9487;50.892;6.906;2023-04-25T17:06:41;10.20;99.90
18717;DHT22;9487;50.892;6.906;2023-04-25T17:09:09;10.20;99.90
18717;DHT22;9487;50.892;6.906;2023-04-25T17:11:36;10.20;1.00
18717;DHT22;9487;50.892;6.906;2023-04-25T17:14:03;10.20;1.00
18717;DHT22;9487;50.892;6.906;2023-04-25T17:16:34;10.20;1.00
18717;DHT22;9487;50.892;6.906;2023-04-25T17:19:03;10.10;99.90
18717;DHT22;9487;50.892;6.906;2023-04-25T17:21:30;10.10;1.00
18717;DHT22;9487;50.892;6.906;2023-04-25T17:23:57;10.10;99.90
18717;DHT22;9487;50.892;6.906;2023-04-25T17:26:24;10.30;99.90
18717;DHT22;9487;50.892;6.906;2023-04-25T17:28:51;10.60;99.90
18717;DHT22;9487;50.892;6.906;2023-04-25T17:31:19;10.90;99.90
18717;DHT22;9487;50.892;6.906;2023-04-25T17:33:46;11.00;99.90
18717;DHT22;9487;50.892;6.906;2023-04-25T17:36:15;11.00;99.90
18717;DHT22;9487;50.892;6.906;2023-04-25T17:38:42;11.00;99.90
18717;DHT22;9487;50.892;6.906;2023-04-25T17:41:09;10.70;99.90
18717;DHT22;9487;50.892;6.906;2023-04-25T17:43:37;10.70;99.90
18717;DHT22;9487;50.892;6.906;2023-04-25T17:46:07;10.60;99.90
18717;DHT22;9487;50.892;6.906;2023-04-25T17:48:34;10.50;66.70
18717;DHT22;9487;50.892;6.906;2023-04-25T17:51:01;10.40;99.90
18717;DHT22;9487;50.892;6.906;2023-04-25T17:53:30;10.40;99.90
18717;DHT22;9487;50.892;6.906;2023-04-25T17:55:58;10.40;91.70
18717;DHT22;9487;50.892;6.906;2023-04-25T17:58:25;10.20;43.00
18717;DHT22;9487;50.892;6.906;2023-04-25T18:00:54;9.90;90.30
18717;DHT22;9487;50.892;6.906;2023-04-25T18:03:21;9.90;59.50
18717;DHT22;9487;50.892;6.906;2023-04-25T18:05:48;9.80;98.20
18717;DHT22;9487;50.892;6.906;2023-04-25T18:08:15;9.70;77.90
18717;DHT22;9487;50.892;6.906;2023-04-25T18:10:43;9.70;88.50
18717;DHT22;9487;50.892;6.906;2023-04-25T18:13:12;9.70;99.90
18717;DHT22;9487;50.892;6.906;2023-04-25T18:15:39;9.70;99.90
18717;DHT22;9487;50.892;6.906;2023-04-25T18:18:06;9.70;99.90
18717;DHT22;9487;50.892;6.906;2023-04-25T18:20:40;9.60;99.90
18717;DHT22;9487;50.892;6.906;2023-04-25T18:23:07;9.50;99.90
18717;DHT22;9487;50.892;6.906;2023-04-25T18:25:34;9.50;99.90
18717;DHT22;9487;50.892;6.906;2023-04-25T18:28:04;9.50;99.90
18717;DHT22;9487;50.892;6.906;2023-04-25T18:30:32;9.50;99.90
18717;DHT22;9487;50.892;6.906;2023-04-25T18:33:00;9.40;99.90
18717;DHT22;9487;50.892;6.906;2023-04-25T18:35:27;9.40;99.90
18717;DHT22;9487;50.892;6.906;2023-04-25T18:37:54;9.30;99.90
18717;DHT22;9487;50.892;6.906;2023-04-25T18:40:21;9.30;99.90
18717;DHT22;9487;50.892;6.906;2023-04-25T18:42:50;9.20;99.90
18717;DHT22;9487;50.892;6.906;2023-04-25T18:45:18;9.20;99.90
18717;DHT22;9487;50.892;6.906;2023-04-25T18:47:45;9.20;99.90
18717;DHT22;9487;50.892;6.906;2023-04-25T18:50:12;9.20;99.90
18717;DHT22;9487;50.892;6.906;2023-04-25T18:52:40;9.20;99.90
18717;DHT22;9487;50.892;6.906;2023-04-25T18:55:08;9.10;99.90
18717;DHT22;9487;50.892;6.906;2023-04-25T18:57:36;9.10;99.90
18717;DHT22;9487;50.892;6.906;2023-04-25T19:00:03;9.00;99.90
18717;DHT22;9487;50.892;6.906;2023-04-25T19:02:33;9.00;99.90
18717;DHT22;9487;50.892;6.906;2023-04-25T19:05:01;8.90;99.90
18717;DHT22;9487;50.892;6.906;2023-04-25T19:07:28;8.90;99.90
18717;DHT22;9487;50.892;6.906;2023-04-25T19:09:57;8.80;99.90
18717;DHT22;9487;50.892;6.906;2023-04-25T19:12:25;8.80;99.90
18717;DHT22;9487;50.892;6.906;2023-04-25T19:14:52;8.70;99.90
18717;DHT22;9487;50.892;6.906;2023-04-25T19:17:21;8.60;1.00
18717;DHT22;9487;50.892;6.906;2023-04-25T19:19:52;8.60;99.90
18717;DHT22;9487;50.892;6.906;2023-04-25T19:22:20;8.60;99.90
18717;DHT22;9487;50.892;6.906;2023-04-25T19:24:48;8.60;99.90
18717;DHT22;9487;50.892;6.906;2023-04-25T19:27:16;8.50;99.90
18717;DHT22;9487;50.892;6.906;2023-04-25T19:29:43;8.50;99.90
18717;DHT22;9487;50.892;6.906;2023-04-25T19:32:13;8.60;99.90
18717;DHT22;9487;50.892;6.906;2023-04-25T19:34:40;8.50;1.00
18717;DHT22;9487;50.892;6.906;2023-04-25T19:37:09;8.40;1.00
18717;DHT22;9487;50.892;6.906;2023-04-25T19:39:36;8.30;1.00
18717;DHT22;9487;50.892;6.906;2023-04-25T19:42:04;8.30;1.00
18717;DHT22;9487;50.892;6.906;2023-04-25T19:44:36;8.20;1.00
18717;DHT22;9487;50.892;6.906;2023-04-25T19:47:04;8.20;1.00
18717;DHT22;9487;50.892;6.906;2023-04-25T19:49:33;8.20;1.00
18717;DHT22;9487;50.892;6.906;2023-04-25T19:52:00;8.00;1.00
18717;DHT22;9487;50.892;6.906;2023-04-25T19:54:29;8.00;1.00
18717;DHT22;9487;50.892;6.906;2023-04-25T19:56:57;8.00;8.20
18717;DHT22;9487;50.892;6.906;2023-04-25T19:59:24;7.90;98.00
18717;DHT22;9487;50.892;6.906;2023-04-25T20:01:51;7.90;99.80
18717;DHT22;9487;50.892;6.906;2023-04-25T20:04:18;7.90;99.90
18717;DHT22;9487;50.892;6.906;2023-04-25T20:06:45;7.90;99.90
18717;DHT22;9487;50.892;6.906;2023-04-25T20:09:12;7.90;99.90
18717;DHT22;9487;50.892;6.906;2023-04-25T20:11:42;7.80;99.90
18717;DHT22;9487;50.892;6.906;2023-04-25T20:14:11;7.80;99.90
18717;DHT22;9487;50.892;6.906;2023-04-25T20:16:38;7.70;99.90
18717;DHT22;9487;50.892;6.906;2023-04-25T20:19:06;7.70;99.90
18717;DHT22;9487;50.892;6.906;2023-04-25T20:21:34;7.70;1.00
18717;DHT22;9487;50.892;6.906;2023-04-25T20:24:01;7.60;1.00
18717;DHT22;9487;50.892;6.906;2023-04-25T20:26:31;7.60;1.00
18717;DHT22;9487;50.892;6.906;2023-04-25T20:29:00;7.50;1.00
18717;DHT22;9487;50.892;6.906;2023-04-25T20:31:28;7.40;1.00
18717;DHT22;9487;50.892;6.906;2023-04-25T20:34:01;7.40;99.90
18717;DHT22;9487;50.892;6.906;2023-04-25T20:36:30;7.40;99.90
18717;DHT22;9487;50.892;6.906;2023-04-25T20:38:59;7.40;99.90
18717;DHT22;9487;50.892;6.906;2023-04-25T20:41:26;7.30;99.90
18717;DHT22;9487;50.892;6.906;2023-04-25T20:43:55;7.30;99.90
18717;DHT22;9487;50.892;6.906;2023-04-25T20:46:25;7.30;1.00
18717;DHT22;9487;50.892;6.906;2023-04-25T20:48:52;7.30;1.00
18717;DHT22;9487;50.892;6.906;2023-04-25T20:51:20;7.20;1.00
18717;DHT22;9487;50.892;6.906;2023-04-25T20:53:47;7.10;1.00
18717;DHT22;9487;50.892;6.906;2023-04-25T20:56:15;7.10;1.00
18717;DHT22;9487;50.892;6.906;2023-04-25T20:58:43;7.00;91.80
18717;DHT22;9487;50.892;6.906;2023-04-25T21:01:10;7.00;99.90
18717;DHT22;9487;50.892;6.906;2023-04-25T21:03:41;6.90;1.00
18717;DHT22;9487;50.892;6.906;2023-04-25T21:06:09;6.80;1.00
18717;DHT22;9487;50.892;6.906;2023-04-25T21:08:36;6.90;1.00
18717;DHT22;9487;50.892;6.906;2023-04-25T21:11:03;6.90;1.00
18717;DHT22;9487;50.892;6.906;2023-04-25T21:13:33;6.80;1.00
18717;DHT22;9487;50.892;6.906;2023-04-25T21:16:03;6.80;1.00
18717;DHT22;9487;50.892;6.906;2023-04-25T21:18:31;6.80;1.00
18717;DHT22;9487;50.892;6.906;2023-04-25T21:21:02;6.80;1.00
18717;DHT22;9487;50.892;6.906;2023-04-25T21:23:30;6.70;48.50
18717;DHT22;9487;50.892;6.906;2023-04-25T21:25:58;6.70;99.90
18717;DHT22;9487;50.892;6.906;2023-04-25T21:28:27;6.70;99.90
18717;DHT22;9487;50.892;6.906;2023-04-25T21:30:54;6.60;99.90
18717;DHT22;9487;50.892;6.906;2023-04-25T21:33:21;6.60;99.90
18717;DHT22;9487;50.892;6.906;2023-04-25T21:35:48;6.60;50.50
18717;DHT22;9487;50.892;6.906;2023-04-25T21:38:17;6.70;1.00
18717;DHT22;9487;50.892;6.906;2023-04-25T21:40:44;6.70;1.00
18717;DHT22;9487;50.892;6.906;2023-04-25T21:43:11;6.70;1.00
18717;DHT22;9487;50.892;6.906;2023-04-25T21:45:38;6.80;1.00
18717;DHT22;9487;50.892;6.906;2023-04-25T21:48:05;6.90;99.90
18717;DHT22;9487;50.892;6.906;2023-04-25T21:50:33;6.80;99.90
18717;DHT22;9487;50.892;6.906;2023-04-25T21:53:00;6.90;99.90
18717;DHT22;9487;50.892;6.906;2023-04-25T21:55:31;6.90;97.30
18717;DHT22;9487;50.892;6.906;2023-04-25T21:57:57;6.90;94.60
18717;DHT22;9487;50.892;6.906;2023-04-25T22:00:25;7.00;1.00
18717;DHT22;9487;50.892;6.906;2023-04-25T22:02:52;7.00;1.00
18717;DHT22;9487;50.892;6.906;2023-04-25T22:05:20;6.90;1.00
18717;DHT22;9487;50.892;6.906;2023-04-25T22:07:48;6.90;1.00
18717;DHT22;9487;50.892;6.906;2023-04-25T22:10:18;6.90;1.00
18717;DHT22;9487;50.892;6.906;2023-04-25T22:12:46;6.90;1.00
18717;DHT22;9487;50.892;6.906;2023-04-25T22:15:15;6.90;1.00
18717;DHT22;9487;50.892;6.906;2023-04-25T22:17:44;7.00;99.90
18717;DHT22;9487;50.892;6.906;2023-04-25T22:20:11;6.90;1.00
18717;DHT22;9487;50.892;6.906;2023-04-25T22:22:39;6.90;1.00
18717;DHT22;9487;50.892;6.906;2023-04-25T22:25:06;6.90;1.00
18717;DHT22;9487;50.892;6.906;2023-04-25T22:27:34;6.80;1.00
18717;DHT22;9487;50.892;6.906;2023-04-25T22:30:02;6.80;1.00
18717;DHT22;9487;50.892;6.906;2023-04-25T22:32:29;6.80;1.00
18717;DHT22;9487;50.892;6.906;2023-04-25T22:34:56;6.80;1.00
18717;DHT22;9487;50.892;6.906;2023-04-25T22:37:23;6.80;1.00
18717;DHT22;9487;50.892;6.906;2023-04-25T22:39:50;6.80;1.00
18717;DHT22;9487;50.892;6.906;2023-04-25T22:42:17;6.80;1.00
18717;DHT22;9487;50.892;6.906;2023-04-25T22:44:44;6.80;1.00
18717;DHT22;9487;50.892;6.906;2023-04-25T22:47:12;6.70;1.00
18717;DHT22;9487;50.892;6.906;2023-04-25T22:49:49;6.70;1.00
18717;DHT22;9487;50.892;6.906;2023-04-25T22:52:16;6.60;1.00
18717;DHT22;9487;50.892;6.906;2023-04-25T22:54:42;6.70;1.00
18717;DHT22;9487;50.892;6.906;2023-04-25T22:57:09;6.60;1.00
18717;DHT22;9487;50.892;6.906;2023-04-25T22:59:36;6.50;1.00
18717;DHT22;9487;50.892;6.906;2023-04-25T23:02:04;6.50;1.00
18717;DHT22;9487;50.892;6.906;2023-04-25T23:04:34;6.40;22.90
18717;DHT22;9487;50.892;6.906;2023-04-25T23:07:02;6.40;51.90
18717;DHT22;9487;50.892;6.906;2023-04-25T23:09:29;6.40;1.00
18717;DHT22;9487;50.892;6.906;2023-04-25T23:11:57;6.30;80.60
18717;DHT22;9487;50.892;6.906;2023-04-25T23:14:25;6.30;99.90
18717;DHT22;9487;50.892;6.906;2023-04-25T23:16:52;6.30;99.90
18717;DHT22;9487;50.892;6.906;2023-04-25T23:19:19;6.20;99.90
18717;DHT22;9487;50.892;6.906;2023-04-25T23:21:47;6.20;99.90
18717;DHT22;9487;50.892;6.906;2023-04-25T23:24:14;6.20;99.90
18717;DHT22;9487;50.892;6.906;2023-04-25T23:26:41;6.20;99.90
18717;DHT22;9487;50.892;6.906;2023-04-25T23:29:08;6.10;99.90
18717;DHT22;9487;50.892;6.906;2023-04-25T23:31:35;6.30;1.00
18717;DHT22;9487;50.892;6.906;2023-04-25T23:34:02;6.50;99.90
18717;DHT22;9487;50.892;6.906;2023-04-25T23:36:29;6.70;99.90
18717;DHT22;9487;50.892;6.906;2023-04-25T23:38:57;6.70;99.90
18717;DHT22;9487;50.892;6.906;2023-04-25T23:41:26;6.70;99.90
18717;DHT22;9487;50.892;6.906;2023-04-25T23:43:53;6.70;99.90
18717;DHT22;9487;50.892;6.906;2023-04-25T23:46:22;6.70;1.00
18717;DHT22;9487;50.892;6.906;2023-04-25T23:48:52;6.70;1.00
18717;DHT22;9487;50.892;6.906;2023-04-25T23:51:22;6.60;1.00
18717;DHT22;9487;50.892;6.906;2023-04-25T23:53:49;6.60;1.00
18717;DHT22;9487;50.892;6.906;2023-04-25T23:56:17;6.50;1.00
18717;DHT22;9487;50.892;6.906;2023-04-25T23:58:44;6.50;1.00
